sensor_id;sensor_type;location;lat;lon;timestamp;pressure;altitude;pressure_sealevel;temperature;humidity
76337;BME280;65157;50.082;18.178;2023-03-24T00:01:00;98710.98;;;14.26;58.75
76337;BME280;65157;50.082;18.178;2023-03-24T00:03:28;98711.90;;;14.26;58.74
76337;BME280;65157;50.082;18.178;2023-03-24T00:06:00;98705.25;;;14.25;58.74
76337;BME280;65157;50.082;18.178;2023-03-24T00:08:33;98703.10;;;14.20;58.85
76337;BME280;65157;50.082;18.178;2023-03-24T00:11:02;98705.94;;;14.22;59.06
76337;BME280;65157;50.082;18.178;2023-03-24T00:13:29;98704.98;;;14.21;59.03
76337;BME280;65157;50.082;18.178;2023-03-24T00:15:57;98698.88;;;14.19;59.20
76337;BME280;65157;50.082;18.178;2023-03-24T00:18:24;98699.82;;;14.18;59.23
76337;BME280;65157;50.082;18.178;2023-03-24T00:20:52;98691.54;;;14.17;59.14
76337;BME280;65157;50.082;18.178;2023-03-24T00:23:18;98682.48;;;14.17;59.16
76337;BME280;65157;50.082;18.178;2023-03-24T00:25:45;98680.73;;;14.17;59.30
76337;BME280;65157;50.082;18.178;2023-03-24T00:28:12;98679.92;;;14.15;59.37
76337;BME280;65157;50.082;18.178;2023-03-24T00:30:41;98676.70;;;14.13;59.51
76337;BME280;65157;50.082;18.178;2023-03-24T00:33:07;98675.62;;;14.11;59.48
76337;BME280;65157;50.082;18.178;2023-03-24T00:35:36;98670.73;;;14.07;59.51
76337;BME280;65157;50.082;18.178;2023-03-24T00:38:03;98675.95;;;14.09;59.57
76337;BME280;65157;50.082;18.178;2023-03-24T00:40:29;98671.42;;;14.07;59.59
76337;BME280;65157;50.082;18.178;2023-03-24T00:42:56;98666.73;;;14.06;59.60
76337;BME280;65157;50.082;18.178;2023-03-24T00:45:23;98662.96;;;14.04;59.58
76337;BME280;65157;50.082;18.178;2023-03-24T00:47:51;98656.75;;;14.01;59.57
76337;BME280;65157;50.082;18.178;2023-03-24T00:50:19;98650.98;;;14.00;59.51
76337;BME280;65157;50.082;18.178;2023-03-24T00:52:46;98645.36;;;13.99;59.60
76337;BME280;65157;50.082;18.178;2023-03-24T00:55:13;98643.25;;;13.99;59.61
76337;BME280;65157;50.082;18.178;2023-03-24T00:57:45;98637.33;;;13.94;59.78
76337;BME280;65157;50.082;18.178;2023-03-24T01:00:12;98642.75;;;13.95;59.93
76337;BME280;65157;50.082;18.178;2023-03-24T01:02:39;98640.59;;;13.93;59.99
76337;BME280;65157;50.082;18.178;2023-03-24T01:05:06;98631.09;;;13.87;60.00
76337;BME280;65157;50.082;18.178;2023-03-24T01:07:33;98634.06;;;13.90;59.96
76337;BME280;65157;50.082;18.178;2023-03-24T01:09:59;98624.92;;;13.86;59.88
76337;BME280;65157;50.082;18.178;2023-03-24T01:12:30;98628.81;;;13.89;60.03
76337;BME280;65157;50.082;18.178;2023-03-24T01:14:59;98625.02;;;13.87;60.00
76337;BME280;65157;50.082;18.178;2023-03-24T01:17:26;98625.27;;;13.87;59.95
76337;BME280;65157;50.082;18.178;2023-03-24T01:19:53;98624.34;;;13.87;59.89
76337;BME280;65157;50.082;18.178;2023-03-24T01:22:29;98625.41;;;13.87;59.79
76337;BME280;65157;50.082;18.178;2023-03-24T01:24:56;98626.47;;;13.87;59.81
76337;BME280;65157;50.082;18.178;2023-03-24T01:27:23;98623.86;;;13.86;59.78
76337;BME280;65157;50.082;18.178;2023-03-24T01:29:49;98622.41;;;13.87;59.80
76337;BME280;65157;50.082;18.178;2023-03-24T01:32:16;98600.35;;;13.71;59.71
76337;BME280;65157;50.082;18.178;2023-03-24T01:34:43;98615.61;;;13.82;59.74
76337;BME280;65157;50.082;18.178;2023-03-24T01:37:09;98623.50;;;13.87;59.82
76337;BME280;65157;50.082;18.178;2023-03-24T01:39:36;98618.35;;;13.84;60.20
76337;BME280;65157;50.082;18.178;2023-03-24T01:42:03;98615.15;;;13.81;60.16
76337;BME280;65157;50.082;18.178;2023-03-24T01:46:57;98607.73;;;13.78;60.08
76337;BME280;65157;50.082;18.178;2023-03-24T01:49:29;98606.96;;;13.76;60.13
76337;BME280;65157;50.082;18.178;2023-03-24T01:52:00;98605.67;;;13.74;59.92
76337;BME280;65157;50.082;18.178;2023-03-24T01:54:33;98605.02;;;13.73;60.20
76337;BME280;65157;50.082;18.178;2023-03-24T01:57:24;98604.13;;;13.71;60.44
76337;BME280;65157;50.082;18.178;2023-03-24T01:59:51;98603.69;;;13.67;60.57
76337;BME280;65157;50.082;18.178;2023-03-24T02:02:19;98602.98;;;13.64;60.73
76337;BME280;65157;50.082;18.178;2023-03-24T02:04:50;98604.02;;;13.61;61.08
76337;BME280;65157;50.082;18.178;2023-03-24T02:07:49;98603.02;;;13.57;61.36
76337;BME280;65157;50.082;18.178;2023-03-24T02:10:19;98602.71;;;13.54;61.51
76337;BME280;65157;50.082;18.178;2023-03-24T02:12:46;98600.04;;;13.52;61.63
76337;BME280;65157;50.082;18.178;2023-03-24T02:15:17;98599.88;;;13.49;61.77
76337;BME280;65157;50.082;18.178;2023-03-24T02:18:08;98601.65;;;13.46;61.99
76337;BME280;65157;50.082;18.178;2023-03-24T02:26:26;98600.20;;;13.38;62.27
76337;BME280;65157;50.082;18.178;2023-03-24T02:48:38;98585.42;;;13.39;62.27
76337;BME280;65157;50.082;18.178;2023-03-24T02:51:22;98582.86;;;13.38;62.18
76337;BME280;65157;50.082;18.178;2023-03-24T02:56:33;98577.70;;;13.35;62.22
76337;BME280;65157;50.082;18.178;2023-03-24T02:59:04;98571.48;;;13.36;62.10
76337;BME280;65157;50.082;18.178;2023-03-24T03:02:01;98567.77;;;13.35;62.10
76337;BME280;65157;50.082;18.178;2023-03-24T03:04:32;98562.04;;;13.36;62.19
76337;BME280;65157;50.082;18.178;2023-03-24T03:07:03;98559.94;;;13.36;62.24
76337;BME280;65157;50.082;18.178;2023-03-24T03:09:32;98557.48;;;13.35;62.48
76337;BME280;65157;50.082;18.178;2023-03-24T03:12:02;98558.27;;;13.34;62.58
76337;BME280;65157;50.082;18.178;2023-03-24T03:14:40;98561.23;;;13.32;62.68
76337;BME280;65157;50.082;18.178;2023-03-24T03:17:14;98559.77;;;13.30;62.81
76337;BME280;65157;50.082;18.178;2023-03-24T03:19:55;98557.40;;;13.29;62.68
76337;BME280;65157;50.082;18.178;2023-03-24T03:22:28;98559.77;;;13.27;62.75
76337;BME280;65157;50.082;18.178;2023-03-24T03:25:00;98559.70;;;13.26;62.69
76337;BME280;65157;50.082;18.178;2023-03-24T03:27:32;98554.77;;;13.26;62.76
76337;BME280;65157;50.082;18.178;2023-03-24T03:30:22;98556.95;;;13.24;62.84
76337;BME280;65157;50.082;18.178;2023-03-24T03:32:55;98560.89;;;13.24;62.98
76337;BME280;65157;50.082;18.178;2023-03-24T03:35:29;98561.24;;;13.24;63.07
76337;BME280;65157;50.082;18.178;2023-03-24T03:38:10;98565.17;;;13.24;63.17
76337;BME280;65157;50.082;18.178;2023-03-24T03:40:49;98561.06;;;13.21;63.15
76337;BME280;65157;50.082;18.178;2023-03-24T03:43:17;98555.63;;;13.18;63.21
76337;BME280;65157;50.082;18.178;2023-03-24T03:45:44;98562.02;;;13.20;63.30
76337;BME280;65157;50.082;18.178;2023-03-24T03:48:11;98562.58;;;13.20;63.39
76337;BME280;65157;50.082;18.178;2023-03-24T03:50:38;98558.89;;;13.19;63.23
76337;BME280;65157;50.082;18.178;2023-03-24T03:53:06;98552.60;;;13.21;63.22
76337;BME280;65157;50.082;18.178;2023-03-24T03:55:33;98553.43;;;13.22;63.34
76337;BME280;65157;50.082;18.178;2023-03-24T03:58:01;98555.79;;;13.21;63.71
76337;BME280;65157;50.082;18.178;2023-03-24T04:00:28;98553.69;;;13.20;63.52
76337;BME280;65157;50.082;18.178;2023-03-24T04:05:59;98547.44;;;13.21;63.69
76337;BME280;65157;50.082;18.178;2023-03-24T04:08:49;98545.80;;;13.22;63.71
76337;BME280;65157;50.082;18.178;2023-03-24T04:17:40;98546.58;;;13.21;64.01
76337;BME280;65157;50.082;18.178;2023-03-24T04:20:19;98543.73;;;13.21;63.95
76337;BME280;65157;50.082;18.178;2023-03-24T04:23:04;98542.30;;;13.21;63.81
76337;BME280;65157;50.082;18.178;2023-03-24T04:25:47;98542.96;;;13.21;63.91
76337;BME280;65157;50.082;18.178;2023-03-24T04:28:34;98538.87;;;13.22;64.10
76337;BME280;65157;50.082;18.178;2023-03-24T04:31:33;98537.77;;;13.20;64.36
76337;BME280;65157;50.082;18.178;2023-03-24T04:34:10;98541.93;;;13.19;64.16
76337;BME280;65157;50.082;18.178;2023-03-24T04:39:20;98536.34;;;13.17;64.35
76337;BME280;65157;50.082;18.178;2023-03-24T04:41:48;98536.30;;;13.18;64.59
76337;BME280;65157;50.082;18.178;2023-03-24T04:44:15;98537.07;;;13.17;64.68
76337;BME280;65157;50.082;18.178;2023-03-24T04:46:42;98534.84;;;13.16;64.94
76337;BME280;65157;50.082;18.178;2023-03-24T04:49:09;98532.63;;;13.12;65.06
76337;BME280;65157;50.082;18.178;2023-03-24T04:51:36;98530.50;;;13.09;65.11
76337;BME280;65157;50.082;18.178;2023-03-24T04:54:03;98529.54;;;13.07;65.22
76337;BME280;65157;50.082;18.178;2023-03-24T04:56:53;98528.42;;;13.05;65.20
76337;BME280;65157;50.082;18.178;2023-03-24T04:59:23;98530.09;;;13.04;65.26
76337;BME280;65157;50.082;18.178;2023-03-24T05:01:50;98532.61;;;13.03;65.22
76337;BME280;65157;50.082;18.178;2023-03-24T05:04:19;98531.44;;;13.02;65.39
76337;BME280;65157;50.082;18.178;2023-03-24T05:06:46;98513.96;;;12.90;65.37
76337;BME280;65157;50.082;18.178;2023-03-24T05:09:13;98531.29;;;13.02;65.38
76337;BME280;65157;50.082;18.178;2023-03-24T05:11:40;98527.92;;;13.01;65.40
76337;BME280;65157;50.082;18.178;2023-03-24T05:14:07;98529.08;;;13.00;65.49
76337;BME280;65157;50.082;18.178;2023-03-24T05:16:33;98523.66;;;12.99;65.41
76337;BME280;65157;50.082;18.178;2023-03-24T05:19:00;98524.04;;;12.98;65.46
76337;BME280;65157;50.082;18.178;2023-03-24T05:21:27;98524.19;;;12.96;65.64
76337;BME280;65157;50.082;18.178;2023-03-24T05:23:54;98522.69;;;12.94;65.79
76337;BME280;65157;50.082;18.178;2023-03-24T05:26:21;98526.23;;;12.92;66.06
76337;BME280;65157;50.082;18.178;2023-03-24T05:28:50;98531.35;;;12.86;66.10
76337;BME280;65157;50.082;18.178;2023-03-24T05:31:19;98534.63;;;12.82;66.27
76337;BME280;65157;50.082;18.178;2023-03-24T05:33:48;98533.47;;;12.81;66.24
76337;BME280;65157;50.082;18.178;2023-03-24T05:36:15;98533.81;;;12.81;66.10
76337;BME280;65157;50.082;18.178;2023-03-24T05:38:42;98530.95;;;12.82;66.14
76337;BME280;65157;50.082;18.178;2023-03-24T05:41:09;98532.15;;;12.82;66.21
76337;BME280;65157;50.082;18.178;2023-03-24T05:43:37;98532.40;;;12.84;66.39
76337;BME280;65157;50.082;18.178;2023-03-24T05:46:04;98528.70;;;12.84;66.42
76337;BME280;65157;50.082;18.178;2023-03-24T05:48:31;98530.23;;;12.85;66.42
76337;BME280;65157;50.082;18.178;2023-03-24T05:50:59;98526.45;;;12.86;66.45
76337;BME280;65157;50.082;18.178;2023-03-24T05:53:26;98521.33;;;12.85;66.65
76337;BME280;65157;50.082;18.178;2023-03-24T05:55:53;98525.21;;;12.85;66.69
76337;BME280;65157;50.082;18.178;2023-03-24T05:58:19;98516.82;;;12.81;66.85
76337;BME280;65157;50.082;18.178;2023-03-24T06:00:46;98522.84;;;12.86;66.87
76337;BME280;65157;50.082;18.178;2023-03-24T06:03:13;98524.55;;;12.88;67.08
76337;BME280;65157;50.082;18.178;2023-03-24T06:05:40;98527.73;;;12.88;67.30
76337;BME280;65157;50.082;18.178;2023-03-24T06:08:06;98526.07;;;12.89;67.26
76337;BME280;65157;50.082;18.178;2023-03-24T06:10:37;98526.99;;;12.91;67.21
76337;BME280;65157;50.082;18.178;2023-03-24T06:13:04;98530.89;;;12.94;67.14
76337;BME280;65157;50.082;18.178;2023-03-24T06:15:30;98530.34;;;12.97;67.21
76337;BME280;65157;50.082;18.178;2023-03-24T06:17:57;98529.64;;;13.00;67.23
76337;BME280;65157;50.082;18.178;2023-03-24T06:20:24;98525.94;;;13.02;67.09
76337;BME280;65157;50.082;18.178;2023-03-24T06:22:51;98524.70;;;13.05;67.00
76337;BME280;65157;50.082;18.178;2023-03-24T06:25:21;98522.55;;;13.06;66.93
76337;BME280;65157;50.082;18.178;2023-03-24T06:27:47;98528.45;;;13.13;66.97
76337;BME280;65157;50.082;18.178;2023-03-24T06:30:15;98531.59;;;13.17;67.14
76337;BME280;65157;50.082;18.178;2023-03-24T06:32:43;98526.11;;;13.19;67.37
76337;BME280;65157;50.082;18.178;2023-03-24T06:35:10;98522.23;;;13.19;67.72
76337;BME280;65157;50.082;18.178;2023-03-24T06:37:37;98523.98;;;13.22;67.78
76337;BME280;65157;50.082;18.178;2023-03-24T06:40:03;98525.75;;;13.25;67.72
76337;BME280;65157;50.082;18.178;2023-03-24T06:42:30;98525.34;;;13.28;67.93
76337;BME280;65157;50.082;18.178;2023-03-24T06:44:57;98523.36;;;13.31;67.85
76337;BME280;65157;50.082;18.178;2023-03-24T06:47:23;98520.31;;;13.35;67.79
76337;BME280;65157;50.082;18.178;2023-03-24T06:49:50;98522.02;;;13.38;67.99
76337;BME280;65157;50.082;18.178;2023-03-24T06:52:17;98523.56;;;13.42;68.02
76337;BME280;65157;50.082;18.178;2023-03-24T06:54:44;98524.06;;;13.45;68.00
76337;BME280;65157;50.082;18.178;2023-03-24T06:57:10;98519.59;;;13.48;67.92
76337;BME280;65157;50.082;18.178;2023-03-24T06:59:38;98518.95;;;13.52;68.12
76337;BME280;65157;50.082;18.178;2023-03-24T07:02:05;98516.78;;;13.53;68.12
76337;BME280;65157;50.082;18.178;2023-03-24T07:04:32;98524.43;;;13.61;68.09
76337;BME280;65157;50.082;18.178;2023-03-24T07:07:01;98526.19;;;13.64;68.19
76337;BME280;65157;50.082;18.178;2023-03-24T07:09:30;98519.20;;;13.65;68.28
76337;BME280;65157;50.082;18.178;2023-03-24T07:12:01;98515.76;;;13.74;68.31
76337;BME280;65157;50.082;18.178;2023-03-24T07:14:28;98513.82;;;13.79;68.32
76337;BME280;65157;50.082;18.178;2023-03-24T07:16:55;98513.91;;;13.83;68.28
76337;BME280;65157;50.082;18.178;2023-03-24T07:19:21;98513.45;;;13.87;68.48
76337;BME280;65157;50.082;18.178;2023-03-24T07:21:48;98507.17;;;13.88;68.67
76337;BME280;65157;50.082;18.178;2023-03-24T07:24:18;98509.52;;;13.95;68.30
76337;BME280;65157;50.082;18.178;2023-03-24T07:26:45;98505.50;;;14.02;67.97
76337;BME280;65157;50.082;18.178;2023-03-24T07:29:14;98504.13;;;14.09;68.05
76337;BME280;65157;50.082;18.178;2023-03-24T07:31:44;98503.43;;;14.14;67.92
76337;BME280;65157;50.082;18.178;2023-03-24T07:34:30;98497.63;;;14.24;67.83
76337;BME280;65157;50.082;18.178;2023-03-24T07:37:05;98494.02;;;14.30;67.84
76337;BME280;65157;50.082;18.178;2023-03-24T07:39:32;98489.77;;;14.35;68.00
76337;BME280;65157;50.082;18.178;2023-03-24T07:42:06;98490.20;;;14.42;67.46
76337;BME280;65157;50.082;18.178;2023-03-24T07:44:32;98488.93;;;14.47;67.29
76337;BME280;65157;50.082;18.178;2023-03-24T07:46:59;98482.30;;;14.53;67.27
76337;BME280;65157;50.082;18.178;2023-03-24T07:49:26;98481.42;;;14.60;67.06
76337;BME280;65157;50.082;18.178;2023-03-24T07:51:52;98477.57;;;14.64;66.60
76337;BME280;65157;50.082;18.178;2023-03-24T07:54:19;98481.15;;;14.71;66.46
76337;BME280;65157;50.082;18.178;2023-03-24T07:56:46;98482.95;;;14.79;66.46
76337;BME280;65157;50.082;18.178;2023-03-24T07:59:13;98472.95;;;14.84;65.67
76337;BME280;65157;50.082;18.178;2023-03-24T08:01:40;98472.11;;;14.91;65.51
76337;BME280;65157;50.082;18.178;2023-03-24T08:04:10;98468.10;;;14.97;65.86
76337;BME280;65157;50.082;18.178;2023-03-24T08:06:38;98473.02;;;15.03;65.42
76337;BME280;65157;50.082;18.178;2023-03-24T08:09:05;98468.22;;;15.07;64.95
76337;BME280;65157;50.082;18.178;2023-03-24T08:11:34;98460.81;;;15.09;64.44
76337;BME280;65157;50.082;18.178;2023-03-24T08:14:01;98463.34;;;15.21;64.13
76337;BME280;65157;50.082;18.178;2023-03-24T08:16:27;98451.98;;;15.25;63.65
76337;BME280;65157;50.082;18.178;2023-03-24T08:18:54;98453.73;;;15.37;62.83
76337;BME280;65157;50.082;18.178;2023-03-24T08:21:21;98446.91;;;15.43;62.84
76337;BME280;65157;50.082;18.178;2023-03-24T08:23:47;98448.45;;;15.49;62.95
76337;BME280;65157;50.082;18.178;2023-03-24T08:26:15;98436.48;;;15.50;62.85
76337;BME280;65157;50.082;18.178;2023-03-24T08:28:43;98438.67;;;15.63;62.58
76337;BME280;65157;50.082;18.178;2023-03-24T08:31:16;98427.48;;;15.65;62.06
76337;BME280;65157;50.082;18.178;2023-03-24T08:33:49;98428.09;;;15.69;62.02
76337;BME280;65157;50.082;18.178;2023-03-24T08:36:19;98430.47;;;15.77;61.70
76337;BME280;65157;50.082;18.178;2023-03-24T08:38:46;98429.17;;;15.82;61.47
76337;BME280;65157;50.082;18.178;2023-03-24T08:41:13;98429.28;;;15.86;61.28
76337;BME280;65157;50.082;18.178;2023-03-24T08:43:40;98430.79;;;15.89;61.17
76337;BME280;65157;50.082;18.178;2023-03-24T08:46:07;98423.48;;;15.92;61.36
76337;BME280;65157;50.082;18.178;2023-03-24T08:48:34;98430.09;;;15.94;61.66
76337;BME280;65157;50.082;18.178;2023-03-24T08:51:14;98421.94;;;15.89;61.67
76337;BME280;65157;50.082;18.178;2023-03-24T08:53:45;98432.26;;;15.98;61.72
76337;BME280;65157;50.082;18.178;2023-03-24T08:56:12;98424.56;;;16.01;61.62
76337;BME280;65157;50.082;18.178;2023-03-24T08:58:39;98419.30;;;16.04;61.71
76337;BME280;65157;50.082;18.178;2023-03-24T09:01:06;98423.10;;;16.08;61.65
76337;BME280;65157;50.082;18.178;2023-03-24T09:03:33;98428.25;;;16.10;61.18
76337;BME280;65157;50.082;18.178;2023-03-24T09:06:00;98424.41;;;16.11;61.23
76337;BME280;65157;50.082;18.178;2023-03-24T09:08:29;98412.61;;;16.10;61.14
76337;BME280;65157;50.082;18.178;2023-03-24T09:10:56;98405.63;;;16.15;61.17
76337;BME280;65157;50.082;18.178;2023-03-24T09:13:23;98406.71;;;16.17;61.34
76337;BME280;65157;50.082;18.178;2023-03-24T09:15:57;98407.90;;;16.18;61.08
76337;BME280;65157;50.082;18.178;2023-03-24T09:18:24;98402.76;;;16.17;61.06
76337;BME280;65157;50.082;18.178;2023-03-24T09:20:51;98408.23;;;16.18;61.34
76337;BME280;65157;50.082;18.178;2023-03-24T09:23:18;98410.20;;;16.18;61.62
76337;BME280;65157;50.082;18.178;2023-03-24T09:25:48;98406.66;;;16.16;61.18
76337;BME280;65157;50.082;18.178;2023-03-24T09:28:19;98401.72;;;16.15;60.99
76337;BME280;65157;50.082;18.178;2023-03-24T09:30:47;98403.88;;;16.15;60.68
76337;BME280;65157;50.082;18.178;2023-03-24T09:33:15;98394.41;;;16.13;60.92
76337;BME280;65157;50.082;18.178;2023-03-24T09:35:42;98396.71;;;16.13;60.56
76337;BME280;65157;50.082;18.178;2023-03-24T09:38:10;98397.77;;;16.13;60.50
76337;BME280;65157;50.082;18.178;2023-03-24T09:40:52;98396.55;;;16.13;60.12
76337;BME280;65157;50.082;18.178;2023-03-24T09:43:26;98397.69;;;16.14;60.39
76337;BME280;65157;50.082;18.178;2023-03-24T09:45:57;98393.92;;;16.17;60.52
76337;BME280;65157;50.082;18.178;2023-03-24T09:48:39;98389.15;;;16.18;60.84
76337;BME280;65157;50.082;18.178;2023-03-24T09:51:31;98374.39;;;16.21;60.61
76337;BME280;65157;50.082;18.178;2023-03-24T09:56:28;98358.73;;;16.27;60.76
76337;BME280;65157;50.082;18.178;2023-03-24T09:59:04;98351.70;;;16.32;61.17
76337;BME280;65157;50.082;18.178;2023-03-24T10:01:33;98350.23;;;16.37;61.15
76337;BME280;65157;50.082;18.178;2023-03-24T10:04:01;98355.59;;;16.42;61.20
76337;BME280;65157;50.082;18.178;2023-03-24T10:06:31;98347.00;;;16.38;60.87
76337;BME280;65157;50.082;18.178;2023-03-24T10:09:25;98342.58;;;16.35;61.11
76337;BME280;65157;50.082;18.178;2023-03-24T10:18:14;98344.29;;;16.56;60.43
76337;BME280;65157;50.082;18.178;2023-03-24T10:20:53;98347.88;;;16.58;60.39
76337;BME280;65157;50.082;18.178;2023-03-24T10:23:47;98346.91;;;16.59;59.86
76337;BME280;65157;50.082;18.178;2023-03-24T10:31:30;98337.50;;;16.63;59.94
76337;BME280;65157;50.082;18.178;2023-03-24T10:33:59;98337.77;;;16.64;59.63
76337;BME280;65157;50.082;18.178;2023-03-24T10:36:27;98335.23;;;16.65;59.77
76337;BME280;65157;50.082;18.178;2023-03-24T10:38:54;98330.21;;;16.65;59.85
76337;BME280;65157;50.082;18.178;2023-03-24T10:41:23;98330.27;;;16.66;60.18
76337;BME280;65157;50.082;18.178;2023-03-24T10:43:51;98330.90;;;16.67;60.19
76337;BME280;65157;50.082;18.178;2023-03-24T10:46:21;98319.44;;;16.68;60.22
76337;BME280;65157;50.082;18.178;2023-03-24T10:49:07;98316.71;;;16.71;60.55
76337;BME280;65157;50.082;18.178;2023-03-24T10:51:34;98317.05;;;16.75;60.75
76337;BME280;65157;50.082;18.178;2023-03-24T10:54:21;98311.50;;;16.73;60.59
76337;BME280;65157;50.082;18.178;2023-03-24T10:59:53;98311.23;;;16.81;60.70
76337;BME280;65157;50.082;18.178;2023-03-24T11:02:30;98312.75;;;16.84;60.39
76337;BME280;65157;50.082;18.178;2023-03-24T11:05:17;98314.66;;;16.87;60.60
76337;BME280;65157;50.082;18.178;2023-03-24T11:07:47;98316.88;;;16.90;60.85
76337;BME280;65157;50.082;18.178;2023-03-24T11:10:16;98312.91;;;16.95;61.15
76337;BME280;65157;50.082;18.178;2023-03-24T11:15:35;98299.21;;;17.06;61.20
76337;BME280;65157;50.082;18.178;2023-03-24T11:20:58;98287.20;;;17.17;61.29
76337;BME280;65157;50.082;18.178;2023-03-24T11:23:29;98282.75;;;17.23;61.31
76337;BME280;65157;50.082;18.178;2023-03-24T11:28:37;98269.11;;;17.36;60.30
76337;BME280;65157;50.082;18.178;2023-03-24T11:31:07;98261.98;;;17.45;60.25
76337;BME280;65157;50.082;18.178;2023-03-24T11:33:41;98251.00;;;17.54;60.12
76337;BME280;65157;50.082;18.178;2023-03-24T11:39:01;98245.84;;;17.76;58.92
76337;BME280;65157;50.082;18.178;2023-03-24T11:41:30;98236.55;;;17.87;58.51
76337;BME280;65157;50.082;18.178;2023-03-24T11:44:21;98233.50;;;17.97;58.10
76337;BME280;65157;50.082;18.178;2023-03-24T11:46:56;98227.65;;;18.08;57.69
76337;BME280;65157;50.082;18.178;2023-03-24T11:49:33;98231.63;;;18.18;57.78
76337;BME280;65157;50.082;18.178;2023-03-24T11:52:11;98229.18;;;18.29;57.18
76337;BME280;65157;50.082;18.178;2023-03-24T11:54:42;98230.76;;;18.37;56.01
76337;BME280;65157;50.082;18.178;2023-03-24T11:57:12;98227.58;;;18.45;55.50
76337;BME280;65157;50.082;18.178;2023-03-24T12:00:14;98222.91;;;18.53;55.52
76337;BME280;65157;50.082;18.178;2023-03-24T12:05:41;98223.11;;;18.71;54.61
76337;BME280;65157;50.082;18.178;2023-03-24T12:24:32;98195.94;;;19.26;46.56
76337;BME280;65157;50.082;18.178;2023-03-24T12:27:29;98194.70;;;19.31;45.36
76337;BME280;65157;50.082;18.178;2023-03-24T12:30:06;98191.59;;;19.36;45.38
76337;BME280;65157;50.082;18.178;2023-03-24T12:35:55;98188.61;;;19.41;45.38
76337;BME280;65157;50.082;18.178;2023-03-24T12:42:08;98191.00;;;19.48;45.70
76337;BME280;65157;50.082;18.178;2023-03-24T12:47:52;98185.85;;;19.58;44.34
76337;BME280;65157;50.082;18.178;2023-03-24T12:56:41;98176.73;;;19.97;44.86
76337;BME280;65157;50.082;18.178;2023-03-24T12:59:15;98173.56;;;20.05;44.68
76337;BME280;65157;50.082;18.178;2023-03-24T13:02:18;98164.71;;;20.02;42.56
76337;BME280;65157;50.082;18.178;2023-03-24T13:04:49;98169.39;;;20.11;42.54
76337;BME280;65157;50.082;18.178;2023-03-24T13:07:20;98174.75;;;20.11;42.68
76337;BME280;65157;50.082;18.178;2023-03-24T13:10:00;98170.70;;;20.10;42.33
76337;BME280;65157;50.082;18.178;2023-03-24T13:12:42;98173.69;;;20.06;42.13
76337;BME280;65157;50.082;18.178;2023-03-24T13:15:18;98180.92;;;19.99;41.89
76337;BME280;65157;50.082;18.178;2023-03-24T13:18:23;98177.18;;;19.92;41.97
76337;BME280;65157;50.082;18.178;2023-03-24T13:20:57;98177.28;;;19.86;42.65
76337;BME280;65157;50.082;18.178;2023-03-24T13:23:43;98187.83;;;19.82;42.83
76337;BME280;65157;50.082;18.178;2023-03-24T13:26:25;98187.33;;;19.80;43.18
76337;BME280;65157;50.082;18.178;2023-03-24T13:29:03;98186.81;;;19.80;43.00
76337;BME280;65157;50.082;18.178;2023-03-24T13:32:08;98184.66;;;19.80;42.81
76337;BME280;65157;50.082;18.178;2023-03-24T13:34:50;98181.80;;;19.81;43.90
76337;BME280;65157;50.082;18.178;2023-03-24T13:37:34;98174.98;;;19.84;42.71
76337;BME280;65157;50.082;18.178;2023-03-24T13:40:07;98174.13;;;19.83;42.82
76337;BME280;65157;50.082;18.178;2023-03-24T13:42:56;98166.45;;;19.81;41.91
76337;BME280;65157;50.082;18.178;2023-03-24T13:48:05;98164.60;;;19.72;41.66
76337;BME280;65157;50.082;18.178;2023-03-24T13:50:50;98161.38;;;19.67;42.93
76337;BME280;65157;50.082;18.178;2023-03-24T13:53:26;98152.94;;;19.62;42.42
76337;BME280;65157;50.082;18.178;2023-03-24T13:55:55;98142.75;;;19.58;42.44
76337;BME280;65157;50.082;18.178;2023-03-24T13:58:26;98142.75;;;19.56;42.57
76337;BME280;65157;50.082;18.178;2023-03-24T14:09:30;98134.54;;;19.56;42.93
76337;BME280;65157;50.082;18.178;2023-03-24T14:14:26;98125.13;;;19.73;42.02
76337;BME280;65157;50.082;18.178;2023-03-24T14:19:35;98128.84;;;19.83;42.53
76337;BME280;65157;50.082;18.178;2023-03-24T14:22:21;98131.12;;;19.80;42.27
76337;BME280;65157;50.082;18.178;2023-03-24T14:25:27;98127.44;;;19.73;42.35
76337;BME280;65157;50.082;18.178;2023-03-24T14:28:32;98126.30;;;19.70;42.35
76337;BME280;65157;50.082;18.178;2023-03-24T14:34:05;98132.61;;;19.54;42.10
76337;BME280;65157;50.082;18.178;2023-03-24T14:41:34;98132.31;;;19.19;42.55
76337;BME280;65157;50.082;18.178;2023-03-24T14:44:02;98141.14;;;19.13;42.23
76337;BME280;65157;50.082;18.178;2023-03-24T14:46:41;98141.18;;;19.01;42.33
76337;BME280;65157;50.082;18.178;2023-03-24T14:51:49;98140.56;;;18.81;43.01
76337;BME280;65157;50.082;18.178;2023-03-24T14:54:26;98151.36;;;18.77;42.88
76337;BME280;65157;50.082;18.178;2023-03-24T14:56:54;98156.77;;;18.69;43.34
76337;BME280;65157;50.082;18.178;2023-03-24T14:59:46;98158.00;;;18.61;43.89
76337;BME280;65157;50.082;18.178;2023-03-24T15:11:05;98155.73;;;18.29;45.44
76337;BME280;65157;50.082;18.178;2023-03-24T15:13:55;98162.29;;;18.20;45.79
76337;BME280;65157;50.082;18.178;2023-03-24T15:16:26;98159.21;;;18.12;46.20
76337;BME280;65157;50.082;18.178;2023-03-24T15:18:54;98158.55;;;18.04;46.22
76337;BME280;65157;50.082;18.178;2023-03-24T15:23:51;98165.43;;;17.89;46.88
76337;BME280;65157;50.082;18.178;2023-03-24T15:26:20;98166.84;;;17.82;47.37
76337;BME280;65157;50.082;18.178;2023-03-24T15:28:56;98165.23;;;17.76;47.72
76337;BME280;65157;50.082;18.178;2023-03-24T15:31:24;98161.95;;;17.66;48.30
76337;BME280;65157;50.082;18.178;2023-03-24T15:33:51;98174.08;;;17.67;48.54
76337;BME280;65157;50.082;18.178;2023-03-24T15:36:25;98166.95;;;17.63;48.66
76337;BME280;65157;50.082;18.178;2023-03-24T15:38:52;98165.64;;;17.57;48.99